Time;durP1;ratioP1;P1;durP2;ratioP2;P2;SDS_P1;SDS_P2;PMS_P1;PMS_P2;Temp;Humidity;BMP_temperature;BMP_pressure;BME280_temperature;BME280_humidity;BME280_pressure;Samples;Min_cycle;Max_cycle;Signal;HPM_P1;HPM_P2
2022/09/12 00:00:24;;;;;;;16.40;5.20;;;;;;;12.32;73.92;98492.13;106358;1273;95694;-64
2022/09/12 00:03:16;;;;;;;13.00;5.40;;;;;;;12.31;73.95;98493.02;105943;1274;110685;-66
2022/09/12 00:05:46;;;;;;;12.40;5.00;;;;;;;12.30;74.03;98488.27;105966;1274;97886;-66
2022/09/12 00:08:14;;;;;;;10.30;4.80;;;;;;;12.30;73.92;98489.29;106066;1274;97824;-65
2022/09/12 00:10:46;;;;;;;10.20;5.10;;;;;;;12.31;73.82;98488.73;106018;1274;112044;-67
2022/09/12 00:13:14;;;;;;;10.70;4.30;;;;;;;12.28;73.91;98484.85;106036;1274;95370;-65
2022/09/12 00:15:47;;;;;;;15.50;5.00;;;;;;;12.28;73.86;98488.50;105952;1274;108347;-64
2022/09/12 00:18:18;;;;;;;14.90;4.90;;;;;;;12.25;73.78;98491.19;106075;1274;97989;-66
2022/09/12 00:20:49;;;;;;;12.00;5.10;;;;;;;12.24;73.88;98487.95;106052;1273;97879;-68
2022/09/12 00:23:18;;;;;;;11.10;4.60;;;;;;;12.22;73.78;98490.09;106047;1273;112027;-66
2022/09/12 00:25:49;;;;;;;11.70;4.60;;;;;;;12.19;73.89;98491.55;106044;1273;97910;-65
2022/09/12 00:28:20;;;;;;;7.40;3.70;;;;;;;12.19;74.00;98493.00;105988;1273;108380;-64
2022/09/12 00:30:50;;;;;;;11.70;4.70;;;;;;;12.17;73.78;98492.77;106055;1273;98066;-64
2022/09/12 00:33:18;;;;;;;13.50;5.40;;;;;;;12.16;73.73;98494.48;106022;1273;98059;-64
2022/09/12 00:35:54;;;;;;;8.70;4.30;;;;;;;12.14;73.78;98485.45;106022;1273;112109;-65
2022/09/12 00:38:22;;;;;;;13.10;4.60;;;;;;;12.13;73.78;98490.13;106090;1273;97972;-65
2022/09/12 00:40:50;;;;;;;14.10;4.60;;;;;;;12.12;73.85;98493.58;106094;1273;108183;-64
2022/09/12 00:43:42;;;;;;;12.50;4.40;;;;;;;12.11;73.73;98488.54;106063;1273;97990;-63
2022/09/12 00:46:18;;;;;;;10.30;4.80;;;;;;;12.11;73.74;98491.60;106098;1273;97896;-64
2022/09/12 00:49:03;;;;;;;10.40;4.60;;;;;;;12.08;73.71;98489.12;106042;1273;111990;-64
2022/09/12 00:51:36;;;;;;;10.10;4.50;;;;;;;12.04;73.72;98486.80;106047;1273;97837;-64
2022/09/12 00:54:14;;;;;;;12.10;4.80;;;;;;;12.02;73.65;98485.77;105979;1274;108326;-63
2022/09/12 00:56:46;;;;;;;12.10;4.40;;;;;;;12.01;73.61;98485.88;106002;1274;97876;-64
2022/09/12 00:59:24;;;;;;;13.00;5.00;;;;;;;11.99;73.52;98485.68;106056;1274;97873;-65
2022/09/12 01:01:55;;;;;;;10.30;4.30;;;;;;;11.97;73.55;98487.09;106051;1274;111418;-68
2022/09/12 01:04:28;;;;;;;11.40;4.30;;;;;;;11.93;73.54;98484.39;106058;1274;97877;-65
2022/09/12 01:06:57;;;;;;;11.40;4.10;;;;;;;11.90;73.47;98487.30;105962;1273;107167;-64
2022/09/12 01:09:33;;;;;;;12.50;4.30;;;;;;;11.89;73.48;98491.49;105984;1274;97845;-63
2022/09/12 01:12:05;;;;;;;9.70;4.40;;;;;;;11.86;73.56;98484.23;106010;1274;97919;-63
2022/09/12 01:14:38;;;;;;;8.80;4.30;;;;;;;11.85;73.52;98485.95;106010;1274;112376;-64
2022/09/12 01:17:10;;;;;;;12.60;4.70;;;;;;;11.82;73.52;98485.66;106044;1274;96291;-63
2022/09/12 01:20:27;;;;;;;11.10;4.60;;;;;;;11.82;73.51;98487.70;105976;1274;108468;-65
2022/09/12 01:23:14;;;;;;;14.40;5.10;;;;;;;11.78;73.45;98491.04;106003;1273;98182;-67
2022/09/12 01:25:54;;;;;;;11.70;4.50;;;;;;;11.74;73.42;98492.76;106099;1273;95423;-63
2022/09/12 01:28:47;;;;;;;10.60;4.40;;;;;;;11.71;73.47;98488.08;106146;1273;112086;-63
2022/09/12 01:31:54;;;;;;;12.60;4.60;;;;;;;11.69;73.58;98485.73;106051;1273;95376;-63
2022/09/12 01:34:50;;;;;;;13.00;4.60;;;;;;;11.67;73.53;98485.95;106043;1273;108429;-64
2022/09/12 01:37:40;;;;;;;11.40;4.70;;;;;;;11.65;73.47;98487.70;106004;1273;97956;-64
2022/09/12 01:40:17;;;;;;;11.70;4.10;;;;;;;11.64;73.55;98484.06;106056;1273;97965;-62
2022/09/12 01:42:55;;;;;;;12.60;4.70;;;;;;;11.64;73.53;98483.67;106085;1273;111420;-62
2022/09/12 01:45:41;;;;;;;10.80;4.20;;;;;;;11.65;73.48;98482.75;106106;1273;97872;-63
2022/09/12 01:48:23;;;;;;;9.30;4.40;;;;;;;11.62;73.51;98480.86;106113;1273;107200;-64
2022/09/12 01:51:01;;;;;;;9.50;4.40;;;;;;;11.58;73.49;98483.11;106101;1273;97770;-62
2022/09/12 01:53:37;;;;;;;8.50;4.20;;;;;;;11.55;73.38;98482.52;106113;1273;97987;-63
2022/09/12 01:56:21;;;;;;;8.50;4.10;;;;;;;11.52;73.24;98483.70;106103;1273;112050;-63
2022/09/12 01:58:57;;;;;;;9.20;4.00;;;;;;;11.49;73.30;98485.88;106071;1273;97700;-61
2022/09/12 02:01:37;;;;;;;13.20;4.60;;;;;;;11.47;73.28;98479.60;106073;1273;108845;-62
2022/09/12 02:04:39;;;;;;;9.70;4.20;;;;;;;11.46;73.27;98490.00;106052;1274;97073;-62
2022/09/12 02:07:22;;;;;;;9.90;4.20;;;;;;;11.43;73.40;98483.12;106011;1273;97918;-63
2022/09/12 02:10:10;;;;;;;10.90;4.10;;;;;;;11.42;73.32;98482.55;106106;1273;111775;-64
2022/09/12 02:12:55;;;;;;;10.90;4.80;;;;;;;11.41;73.35;98481.23;106134;1273;97750;-65
2022/09/12 02:15:39;;;;;;;8.90;4.20;;;;;;;11.39;73.39;98483.14;106077;1273;108299;-61
2022/09/12 02:18:13;;;;;;;12.20;4.20;;;;;;;11.38;73.36;98484.83;106051;1273;97921;-63
2022/09/12 02:20:47;;;;;;;11.70;4.90;;;;;;;11.37;73.32;98484.77;106060;1273;96339;-64
2022/09/12 02:23:33;;;;;;;12.80;4.40;;;;;;;11.37;73.31;98491.35;106043;1273;111409;-64
2022/09/12 02:26:20;;;;;;;12.20;4.60;;;;;;;11.35;73.28;98487.40;106117;1273;98309;-63
2022/09/12 02:28:48;;;;;;;9.50;4.20;;;;;;;11.33;73.25;98485.61;106086;1273;106720;-63
2022/09/12 02:31:48;;;;;;;9.70;4.20;;;;;;;11.32;73.30;98485.73;106024;1273;98070;-64
2022/09/12 02:34:33;;;;;;;8.80;3.90;;;;;;;11.29;73.22;98483.80;106113;1273;97989;-62
2022/09/12 02:37:15;;;;;;;9.90;3.70;;;;;;;11.27;73.10;98483.77;106063;1273;111470;-63
2022/09/12 02:39:47;;;;;;;12.50;3.90;;;;;;;11.26;73.19;98484.25;106032;1274;95388;-63
2022/09/12 02:42:17;;;;;;;8.10;3.70;;;;;;;11.24;73.20;98480.30;106086;1274;108448;-62
2022/09/12 02:44:49;;;;;;;9.30;3.90;;;;;;;11.23;73.19;98484.67;106099;1274;97915;-64
2022/09/12 02:47:30;;;;;;;11.50;4.60;;;;;;;11.22;73.26;98488.15;106170;1274;97869;-63
2022/09/12 02:50:04;;;;;;;10.30;4.20;;;;;;;11.20;73.23;98494.52;106070;1274;111742;-63
2022/09/12 02:52:32;;;;;;;9.90;3.80;;;;;;;11.15;73.19;98492.73;106123;1274;97859;-63
2022/09/12 02:55:04;;;;;;;10.00;4.20;;;;;;;11.14;73.21;98495.17;106045;1273;109323;-64
2022/09/12 02:57:32;;;;;;;11.50;4.50;;;;;;;11.12;73.13;98493.73;106019;1273;97958;-64
2022/09/12 03:00:06;;;;;;;9.50;4.50;;;;;;;11.12;73.31;98496.23;106042;1273;97737;-64
2022/09/12 03:02:40;;;;;;;10.90;4.40;;;;;;;11.11;73.16;98495.79;106093;1273;111537;-63
2022/09/12 03:05:32;;;;;;;10.00;4.00;;;;;;;11.09;73.24;98497.51;106075;1273;97628;-62
2022/09/12 03:08:09;;;;;;;11.70;4.40;;;;;;;11.08;73.13;98497.10;105922;1274;108406;-62
2022/09/12 03:10:54;;;;;;;10.90;4.40;;;;;;;11.08;73.16;98504.23;105953;1274;98048;-64
2022/09/12 03:13:44;;;;;;;10.00;4.30;;;;;;;11.05;73.15;98504.64;105988;1275;97889;-64
2022/09/12 03:16:28;;;;;;;12.90;5.00;;;;;;;11.02;73.14;98507.48;105964;1274;112000;-63
2022/09/12 03:19:35;;;;;;;13.10;4.10;;;;;;;10.99;73.11;98505.98;106025;1274;98584;-63
2022/09/12 03:22:32;;;;;;;14.70;4.90;;;;;;;10.95;73.19;98504.08;105995;1274;108493;-63
2022/09/12 03:25:17;;;;;;;17.30;4.80;;;;;;;10.91;73.16;98510.00;106029;1274;97965;-63
2022/09/12 03:28:12;;;;;;;10.60;4.50;;;;;;;10.90;73.12;98508.20;106948;1273;97974;-65
2022/09/12 03:30:47;;;;;;;8.50;4.20;;;;;;;10.88;73.12;98511.03;105921;1273;111965;-63
2022/09/12 03:33:23;;;;;;;9.60;4.00;;;;;;;10.85;73.03;98512.80;106102;1273;97924;-64
2022/09/12 03:35:54;;;;;;;11.70;4.00;;;;;;;10.82;73.18;98514.83;105941;1273;108308;-63
2022/09/12 03:38:22;;;;;;;8.40;4.40;;;;;;;10.80;73.14;98516.45;105978;1273;97934;-63
2022/09/12 03:40:51;;;;;;;13.00;4.20;;;;;;;10.79;73.09;98514.05;106012;1273;97978;-64
2022/09/12 03:43:24;;;;;;;14.30;4.40;;;;;;;10.77;73.10;98516.91;105954;1274;110778;-63
2022/09/12 03:45:52;;;;;;;14.00;4.60;;;;;;;10.74;73.13;98526.52;106063;1273;95196;-65
2022/09/12 03:48:23;;;;;;;12.80;4.60;;;;;;;10.71;73.15;98529.02;106091;1273;108366;-65
2022/09/12 03:50:51;;;;;;;16.40;4.60;;;;;;;10.69;73.14;98528.86;105982;1273;97921;-64
2022/09/12 03:53:19;;;;;;;12.60;4.30;;;;;;;10.67;73.06;98529.05;104333;1273;2359348;-65
2022/09/12 03:55:47;;;;;;;13.80;4.70;;;;;;;10.64;73.18;98527.32;106066;1273;95257;-65
2022/09/12 03:58:18;;;;;;;11.40;4.30;;;;;;;10.61;73.18;98530.03;106101;1273;97886;-63
2022/09/12 04:00:50;;;;;;;12.50;4.70;;;;;;;10.59;73.03;98530.73;106125;1273;108980;-63
2022/09/12 04:03:22;;;;;;;14.00;4.40;;;;;;;10.57;73.11;98533.20;106115;1274;97924;-65
2022/09/12 04:05:50;;;;;;;9.90;4.20;;;;;;;10.54;73.23;98533.63;106157;1273;97890;-64
2022/09/12 04:08:20;;;;;;;6.70;3.60;;;;;;;10.50;73.15;98533.57;106110;1273;112069;-64
2022/09/12 04:10:48;;;;;;;9.50;4.50;;;;;;;10.47;73.17;98535.75;106182;1273;97950;-65
2022/09/12 04:13:16;;;;;;;10.80;4.70;;;;;;;10.46;73.15;98537.84;106001;1272;108750;-65
2022/09/12 04:15:55;;;;;;;10.80;4.60;;;;;;;10.45;73.29;98538.92;106013;1273;97952;-65
2022/09/12 04:18:25;;;;;;;11.50;4.80;;;;;;;10.44;73.26;98541.35;106072;1273;97923;-66
2022/09/12 04:20:53;;;;;;;11.00;4.70;;;;;;;10.44;73.28;98542.18;106078;1273;112020;-64
2022/09/12 04:23:24;;;;;;;12.30;5.00;;;;;;;10.46;73.36;98545.93;106119;1273;95307;-66
2022/09/12 04:26:00;;;;;;;11.60;4.90;;;;;;;10.47;73.31;98543.61;106101;1273;108293;-67
2022/09/12 04:28:29;;;;;;;10.80;4.50;;;;;;;10.48;73.37;98545.84;106091;1273;97868;-64
2022/09/12 04:31:03;;;;;;;12.30;4.80;;;;;;;10.48;73.46;98547.23;106149;1273;95349;-64
2022/09/12 04:33:37;;;;;;;;;;;;;;;10.48;73.48;98552.38;106147;1273;111056;-66
2022/09/12 04:36:11;;;;;;;13.10;4.50;;;;;;;10.47;73.42;98549.64;106162;1273;97884;-64
2022/09/12 04:38:40;;;;;;;11.60;5.00;;;;;;;10.49;73.43;98549.84;106045;1273;107402;-63
2022/09/12 04:41:10;;;;;;;10.40;4.30;;;;;;;10.50;73.45;98552.38;106072;1273;95459;-64
2022/09/12 04:43:50;;;;;;;12.00;4.80;;;;;;;10.51;73.47;98554.04;106097;1273;97947;-65
2022/09/12 04:46:23;;;;;;;11.20;4.30;;;;;;;10.53;73.46;98557.10;106084;1273;112047;-63
2022/09/12 04:48:52;;;;;;;14.40;4.50;;;;;;;10.55;73.58;98556.90;106168;1273;97811;-62
2022/09/12 04:51:30;;;;;;;9.60;4.90;;;;;;;10.58;73.51;98556.91;106092;1273;107893;-63
2022/09/12 04:54:03;;;;;;;12.70;4.70;;;;;;;10.59;73.46;98559.45;106125;1273;98613;-66
2022/09/12 04:56:39;;;;;;;13.20;4.80;;;;;;;10.60;73.39;98560.45;106171;1273;97908;-64
2022/09/12 04:59:15;;;;;;;10.40;5.00;;;;;;;10.61;73.54;98557.33;106120;1273;111963;-63
2022/09/12 05:01:43;;;;;;;12.80;5.10;;;;;;;10.63;73.54;98557.71;105987;1273;98058;-65
2022/09/12 05:04:14;;;;;;;12.60;4.70;;;;;;;10.66;73.50;98557.84;106053;1273;110129;-64
2022/09/12 05:06:46;;;;;;;13.70;4.80;;;;;;;10.69;73.58;98559.54;106159;1273;95278;-64
2022/09/12 05:09:18;;;;;;;11.60;4.50;;;;;;;10.71;73.50;98568.96;106155;1273;95191;-64
2022/09/12 05:11:47;;;;;;;13.60;4.90;;;;;;;10.72;73.67;98568.53;106097;1273;112656;-65
2022/09/12 05:14:37;;;;;;;12.70;5.40;;;;;;;10.73;73.56;98572.86;106076;1273;95432;-64
2022/09/12 05:17:09;;;;;;;14.70;4.80;;;;;;;10.75;73.60;98570.63;106072;1273;109965;-65
2022/09/12 05:19:42;;;;;;;11.90;4.90;;;;;;;10.76;73.74;98585.21;106139;1273;98586;-65
2022/09/12 05:22:14;;;;;;;12.70;4.80;;;;;;;10.77;73.62;98585.71;106089;1273;97878;-65
2022/09/12 05:24:47;;;;;;;10.80;4.30;;;;;;;10.79;73.73;98580.22;106151;1273;112233;-64
2022/09/12 05:27:20;;;;;;;14.20;4.80;;;;;;;10.81;73.61;98584.27;106185;1273;97997;-65
2022/09/12 05:29:53;;;;;;;11.10;5.00;;;;;;;10.82;73.70;98584.41;106068;1273;108396;-65
2022/09/12 05:32:21;;;;;;;10.90;4.80;;;;;;;10.82;73.69;98585.44;106026;1273;97952;-64
2022/09/12 05:34:52;;;;;;;12.90;5.10;;;;;;;10.84;73.67;98592.05;106015;1274;97887;-65
2022/09/12 05:37:23;;;;;;;9.70;4.70;;;;;;;10.84;73.64;98593.61;106109;1273;112394;-65
2022/09/12 05:39:55;;;;;;;10.10;5.30;;;;;;;10.85;73.65;98597.44;106188;1273;97847;-64
2022/09/12 05:42:29;;;;;;;14.00;5.00;;;;;;;10.85;73.71;98598.11;106075;1273;108056;-65
2022/09/12 05:44:57;;;;;;;11.30;5.10;;;;;;;10.86;73.67;98595.39;106083;1273;97891;-65
2022/09/12 05:47:29;;;;;;;16.60;4.70;;;;;;;10.89;73.70;98594.09;106103;1273;98446;-65
2022/09/12 05:50:00;;;;;;;10.00;4.60;;;;;;;10.91;73.71;98595.35;106106;1273;112637;-66
2022/09/12 05:52:33;;;;;;;12.80;5.10;;;;;;;10.92;73.73;98595.29;106042;1274;95238;-63
2022/09/12 05:55:01;;;;;;;10.30;4.70;;;;;;;10.94;73.81;98595.66;106088;1273;108661;-65
2022/09/12 05:57:33;;;;;;;14.20;4.90;;;;;;;10.96;73.70;98591.59;106147;1273;96495;-64
2022/09/12 06:00:08;;;;;;;10.90;5.40;;;;;;;10.97;73.76;98585.82;106181;1273;97863;-65
2022/09/12 06:02:36;;;;;;;10.80;5.00;;;;;;;10.99;73.82;98584.20;106042;1273;111521;-65
2022/09/12 06:05:08;;;;;;;16.60;6.10;;;;;;;11.01;73.87;98579.41;106082;1273;97982;-64
2022/09/12 06:07:36;;;;;;;13.20;5.00;;;;;;;11.02;73.82;98583.25;106085;1273;107154;-65
2022/09/12 06:10:10;;;;;;;11.80;4.40;;;;;;;11.04;74.05;98588.63;106113;1274;95677;-65
2022/09/12 06:12:43;;;;;;;8.80;4.40;;;;;;;11.05;73.80;98590.11;106034;1273;96968;-64
2022/09/12 06:15:15;;;;;;;11.30;4.80;;;;;;;11.06;73.82;98588.78;106116;1273;112693;-64
2022/09/12 06:17:48;;;;;;;15.30;5.30;;;;;;;11.08;73.94;98592.02;106148;1273;97850;-62
2022/09/12 06:20:19;;;;;;;11.80;5.50;;;;;;;11.10;73.91;98592.05;106099;1273;108478;-65
2022/09/12 06:22:47;;;;;;;11.60;4.60;;;;;;;11.11;73.86;98586.48;106069;1273;96682;-63
2022/09/12 06:25:15;;;;;;;16.00;5.50;;;;;;;11.13;73.86;98589.63;106140;1272;97926;-63
2022/09/12 06:27:44;;;;;;;12.90;5.80;;;;;;;11.15;73.83;98587.75;106126;1273;112090;-65
2022/09/12 06:30:15;;;;;;;13.30;5.30;;;;;;;11.17;73.94;98591.32;106027;1273;97879;-65
2022/09/12 06:32:55;;;;;;;12.70;5.50;;;;;;;11.18;73.84;98594.44;106025;1273;108585;-64
2022/09/12 06:35:25;;;;;;;20.30;5.70;;;;;;;11.18;73.85;98603.10;106084;1273;97964;-64
2022/09/12 06:37:54;;;;;;;12.20;4.80;;;;;;;11.19;73.90;98603.08;106105;1273;97838;-66
2022/09/12 06:40:24;;;;;;;10.80;4.60;;;;;;;11.20;73.95;98597.59;106091;1273;112145;-64
2022/09/12 06:42:56;;;;;;;15.80;5.30;;;;;;;11.23;73.90;98600.75;106115;1273;97974;-63
2022/09/12 06:45:27;;;;;;;13.70;5.40;;;;;;;11.26;73.95;98609.73;106034;1275;108538;-61
2022/09/12 06:47:59;;;;;;;12.80;5.30;;;;;;;11.27;73.79;98610.15;106091;1273;95259;-63
2022/09/12 06:50:31;;;;;;;11.80;5.20;;;;;;;11.29;73.85;98612.83;106128;1273;97924;-66
2022/09/12 06:53:02;;;;;;;12.10;5.00;;;;;;;11.30;73.82;98615.27;106081;1273;111951;-65
2022/09/12 06:55:31;;;;;;;14.90;5.50;;;;;;;11.30;73.89;98617.23;106153;1273;95294;-64
2022/09/12 06:57:58;;;;;;;13.20;5.30;;;;;;;11.31;73.81;98618.19;106065;1273;108418;-64
2022/09/12 07:00:30;;;;;;;11.90;5.00;;;;;;;11.32;73.87;98616.33;106223;1273;96519;-65
2022/09/12 07:02:58;;;;;;;16.20;5.10;;;;;;;11.34;73.95;98623.77;106006;1273;95279;-64
2022/09/12 07:05:27;;;;;;;13.10;5.80;;;;;;;11.36;73.73;98626.27;106082;1273;112118;-63
2022/09/12 07:07:58;;;;;;;11.90;5.10;;;;;;;11.37;73.83;98633.30;106186;1273;95677;-64
2022/09/12 07:10:30;;;;;;;12.20;4.60;;;;;;;11.36;73.82;98633.98;106087;1273;107997;-65
2022/09/12 07:12:58;;;;;;;11.40;5.20;;;;;;;11.36;73.90;98638.77;106062;1273;97991;-64
2022/09/12 07:15:28;;;;;;;17.70;5.70;;;;;;;11.37;73.73;98634.08;106052;1273;97919;-61
2022/09/12 07:17:56;;;;;;;15.10;5.40;;;;;;;11.37;73.86;98635.27;105959;1274;113167;-65
2022/09/12 07:20:24;;;;;;;11.30;5.20;;;;;;;11.39;73.80;98633.34;105998;1273;96404;-64
2022/09/12 07:22:52;;;;;;;16.90;5.90;;;;;;;11.41;73.81;98637.73;106020;1273;108214;-63
2022/09/12 07:25:23;;;;;;;14.30;5.00;;;;;;;11.44;73.74;98636.65;106024;1273;96439;-64
2022/09/12 07:27:54;;;;;;;11.10;4.90;;;;;;;11.46;73.85;98643.55;106004;1273;96299;-64
2022/09/12 07:30:22;;;;;;;13.80;5.40;;;;;;;11.49;73.89;98640.11;105984;1273;113908;-65
2022/09/12 07:32:54;;;;;;;16.40;5.40;;;;;;;11.51;73.85;98641.58;106071;1273;97754;-64
2022/09/12 07:35:26;;;;;;;14.30;5.30;;;;;;;11.56;73.85;98645.99;106108;1273;108848;-63
2022/09/12 07:37:53;;;;;;;9.90;4.40;;;;;;;11.60;73.81;98645.14;106137;1273;97887;-64
2022/09/12 07:40:21;;;;;;;14.60;5.50;;;;;;;11.64;73.78;98646.39;106035;1273;97920;-64
2022/09/12 07:42:58;;;;;;;14.00;5.30;;;;;;;11.70;73.71;98647.31;106106;1273;112422;-62
2022/09/12 07:45:31;;;;;;;16.30;5.50;;;;;;;11.74;73.68;98650.48;106108;1273;95361;-65
2022/09/12 07:48:04;;;;;;;13.60;5.20;;;;;;;11.78;73.65;98649.16;106007;1274;107474;-66
2022/09/12 07:50:32;;;;;;;13.60;5.80;;;;;;;11.79;73.68;98654.84;106055;1273;95257;-65
2022/09/12 07:53:13;;;;;;;16.80;5.30;;;;;;;11.81;73.59;98659.73;106185;1273;97966;-65
2022/09/12 07:55:41;;;;;;;18.20;5.50;;;;;;;11.81;73.58;98659.30;106126;1274;111981;-63
2022/09/12 07:58:12;;;;;;;12.80;5.30;;;;;;;11.82;73.56;98661.52;106134;1273;97999;-67
2022/09/12 08:00:44;;;;;;;15.10;5.90;;;;;;;11.83;73.62;98665.52;106105;1273;108768;-64
2022/09/12 08:03:17;;;;;;;18.00;7.00;;;;;;;11.85;73.57;98663.96;106139;1273;95276;-65
2022/09/12 08:05:48;;;;;;;15.60;6.00;;;;;;;11.89;73.54;98670.04;106114;1273;97856;-65
2022/09/12 08:08:21;;;;;;;12.50;5.30;;;;;;;11.93;73.69;98666.84;106026;1274;111520;-63
2022/09/12 08:11:00;;;;;;;15.20;5.20;;;;;;;11.97;73.55;98668.86;106158;1273;95616;-64
2022/09/12 08:13:31;;;;;;;15.70;5.10;;;;;;;11.99;73.61;98665.31;106161;1273;108550;-64
2022/09/12 08:16:06;;;;;;;16.60;5.50;;;;;;;12.01;73.44;98670.33;106062;1273;96671;-65
2022/09/12 08:18:38;;;;;;;11.70;5.20;;;;;;;12.03;73.65;98666.36;106135;1273;95270;-62
2022/09/12 08:21:27;;;;;;;14.50;5.70;;;;;;;12.03;73.56;98667.45;106125;1273;112687;-64
2022/09/12 08:24:02;;;;;;;15.10;6.40;;;;;;;12.02;73.49;98667.70;106042;1273;95376;-64
2022/09/12 08:26:38;;;;;;;12.90;5.40;;;;;;;12.03;73.47;98672.80;106085;1273;109347;-64
2022/09/12 08:29:06;;;;;;;14.20;6.10;;;;;;;12.03;73.50;98670.51;106099;1273;97969;-64
2022/09/12 08:31:37;;;;;;;10.60;4.90;;;;;;;12.04;73.35;98667.02;106166;1273;98649;-63
2022/09/12 08:34:15;;;;;;;11.50;5.00;;;;;;;12.06;73.44;98667.40;106116;1273;112024;-62
2022/09/12 08:36:44;;;;;;;10.90;5.00;;;;;;;12.07;73.38;98666.20;106107;1273;97895;-64
2022/09/12 08:39:13;;;;;;;13.80;5.20;;;;;;;12.09;73.35;98665.38;106097;1273;107561;-63
2022/09/12 08:42:00;;;;;;;12.20;5.30;;;;;;;12.12;73.35;98663.85;106097;1273;97968;-64
2022/09/12 08:45:05;;;;;;;11.10;4.80;;;;;;;12.20;73.36;98669.56;106121;1273;97857;-64
2022/09/12 08:47:45;;;;;;;13.00;4.90;;;;;;;12.27;73.35;98673.25;105931;1274;110928;-64
2022/09/12 08:50:25;;;;;;;14.50;5.50;;;;;;;12.30;73.34;98671.23;106171;1273;97966;-64
2022/09/12 08:53:16;;;;;;;13.00;5.30;;;;;;;12.35;73.33;98674.51;106149;1274;107687;-64
2022/09/12 08:55:52;;;;;;;13.00;5.20;;;;;;;12.42;73.40;98672.66;106120;1273;97846;-63
2022/09/12 08:58:26;;;;;;;12.90;5.00;;;;;;;12.47;73.27;98674.05;106102;1273;97009;-62
2022/09/12 09:01:13;;;;;;;10.80;4.60;;;;;;;12.51;73.30;98674.88;106049;1273;111559;-65
2022/09/12 09:04:11;;;;;;;14.60;5.30;;;;;;;12.56;73.28;98677.18;106197;1273;97908;-68
2022/09/12 09:06:47;;;;;;;14.60;5.20;;;;;;;12.55;73.19;98673.21;106199;1273;108645;-64
2022/09/12 09:09:38;;;;;;;11.40;4.40;;;;;;;12.53;73.17;98673.17;106144;1273;97928;-63
2022/09/12 09:12:27;;;;;;;14.20;5.30;;;;;;;12.54;73.24;98678.63;106145;1273;97756;-63
2022/09/12 09:15:08;;;;;;;12.80;5.00;;;;;;;12.56;73.16;98684.28;106096;1273;112195;-63
2022/09/12 09:17:49;;;;;;;13.80;4.80;;;;;;;12.58;73.14;98686.27;106186;1273;96518;-64
2022/09/12 09:20:51;;;;;;;12.70;4.80;;;;;;;12.58;73.12;98690.17;106055;1276;106554;-64
2022/09/12 09:23:32;;;;;;;15.60;5.00;;;;;;;12.57;73.13;98696.27;106077;1273;97831;-63
2022/09/12 09:26:25;;;;;;;13.80;5.30;;;;;;;12.51;72.95;98693.95;106127;1273;97865;-64
2022/09/12 09:29:05;;;;;;;12.10;4.80;;;;;;;12.35;72.89;98697.08;106246;1273;111373;-62
2022/09/12 09:31:43;;;;;;;13.80;5.10;;;;;;;12.25;72.84;98694.96;106217;1273;97980;-64
2022/09/12 09:34:21;;;;;;;11.20;5.20;;;;;;;12.17;72.92;98696.48;106073;1273;107950;-64
2022/09/12 09:36:49;;;;;;;15.80;5.40;;;;;;;12.13;72.90;98693.98;106162;1273;97817;-63
2022/09/12 09:39:35;;;;;;;14.90;5.20;;;;;;;12.16;73.03;98701.35;106139;1273;95353;-64
2022/09/12 09:42:21;;;;;;;12.30;5.70;;;;;;;12.18;73.06;98701.33;106115;1274;112045;-64
2022/09/12 09:44:58;;;;;;;11.30;4.90;;;;;;;12.17;73.02;98702.52;106164;1273;98601;-62
2022/09/12 09:47:26;;;;;;;12.70;4.70;;;;;;;12.15;72.89;98701.64;106044;1273;108051;-65
2022/09/12 09:49:54;;;;;;;11.20;5.20;;;;;;;12.11;72.72;98701.63;106113;1273;97846;-64
2022/09/12 09:52:34;;;;;;;12.90;5.20;;;;;;;12.09;72.78;98701.25;106179;1273;97867;-65
2022/09/12 09:55:07;;;;;;;12.80;5.10;;;;;;;12.07;72.94;98702.46;106156;1273;111392;-65
2022/09/12 09:57:35;;;;;;;13.70;5.30;;;;;;;12.07;72.91;98709.27;106104;1273;98838;-65
2022/09/12 10:00:25;;;;;;;12.40;5.70;;;;;;;12.04;72.76;98705.59;106131;1273;108461;-64
2022/09/12 10:03:11;;;;;;;10.60;4.80;;;;;;;12.01;72.90;98707.63;106014;1274;97948;-65
2022/09/12 10:05:56;;;;;;;12.40;4.80;;;;;;;12.02;73.07;98705.55;106127;1273;96578;-64
2022/09/12 10:08:31;;;;;;;13.40;5.70;;;;;;;12.05;73.02;98708.50;106127;1273;111466;-64
2022/09/12 10:11:25;;;;;;;12.70;4.90;;;;;;;12.09;72.97;98710.55;106050;1273;98031;-64
2022/09/12 10:14:00;;;;;;;13.50;5.70;;;;;;;12.12;72.98;98714.64;106122;1273;107665;-64
2022/09/12 10:16:54;;;;;;;14.10;5.50;;;;;;;12.17;72.95;98715.19;106139;1273;97759;-63
2022/09/12 10:19:39;;;;;;;14.00;5.40;;;;;;;12.20;73.05;98716.36;106115;1273;98452;-65
2022/09/12 10:22:18;;;;;;;11.40;5.00;;;;;;;12.23;72.98;98719.13;106214;1267;111395;-65
2022/09/12 10:24:57;;;;;;;10.20;5.00;;;;;;;12.25;73.06;98723.92;106100;1274;97896;-64
2022/09/12 10:27:35;;;;;;;10.60;4.90;;;;;;;12.22;72.90;98728.21;106064;1273;105867;-64
2022/09/12 10:30:23;;;;;;;10.10;5.00;;;;;;;12.21;73.02;98726.86;106108;1274;97887;-64
2022/09/12 10:33:08;;;;;;;15.90;5.50;;;;;;;12.19;73.05;98740.05;106026;1273;95272;-66
2022/09/12 10:35:47;;;;;;;14.00;5.10;;;;;;;12.18;73.13;98738.71;105929;1273;111468;-65
2022/09/12 10:38:25;;;;;;;13.90;5.70;;;;;;;12.17;73.05;98741.44;105917;1274;96432;-63
2022/09/12 10:41:06;;;;;;;12.10;5.40;;;;;;;12.14;72.97;98739.73;106177;1274;109271;-64
2022/09/12 10:43:34;;;;;;;11.20;5.80;;;;;;;12.12;73.09;98741.52;106137;1274;96969;-65
2022/09/12 10:46:13;;;;;;;9.90;4.80;;;;;;;12.11;73.17;98746.23;106076;1271;98550;-64
2022/09/12 10:49:11;;;;;;;15.80;5.10;;;;;;;12.05;72.95;98747.40;106029;1274;112128;-64
2022/09/12 10:51:39;;;;;;;12.50;5.60;;;;;;;12.02;73.08;98751.77;106184;1274;98530;-64
2022/09/12 10:54:11;;;;;;;11.70;5.40;;;;;;;12.01;73.21;98750.05;106131;1273;108060;-63
2022/09/12 10:57:10;;;;;;;8.80;4.40;;;;;;;12.02;73.29;98751.06;106096;1274;97982;-63
2022/09/12 10:59:43;;;;;;;19.10;6.90;;;;;;;12.00;73.15;98750.88;106199;1274;98653;-64
2022/09/12 11:02:42;;;;;;;13.10;5.30;;;;;;;11.97;73.18;98749.31;106059;1273;110875;-63
2022/09/12 11:05:26;;;;;;;13.00;5.70;;;;;;;11.98;73.28;98756.02;106072;1274;96300;-63
2022/09/12 11:08:18;;;;;;;10.50;5.40;;;;;;;11.99;73.41;98755.23;106144;1274;107823;-63
2022/09/12 11:11:01;;;;;;;11.10;5.10;;;;;;;12.01;73.45;98754.35;106146;1274;97848;-63
2022/09/12 11:13:57;;;;;;;13.00;5.80;;;;;;;12.03;73.42;98758.44;106273;1274;97850;-63
2022/09/12 11:16:40;;;;;;;12.20;5.10;;;;;;;12.07;73.37;98751.50;106110;1273;112513;-64
2022/09/12 11:19:23;;;;;;;13.40;5.40;;;;;;;12.12;73.53;98756.69;106199;1274;96602;-65
2022/09/12 11:22:25;;;;;;;14.10;6.10;;;;;;;12.14;73.54;98752.06;106282;1274;107839;-64
2022/09/12 11:25:28;;;;;;;12.80;5.40;;;;;;;12.18;73.62;98756.86;106011;1274;98039;-65
2022/09/12 11:28:16;;;;;;;15.40;5.40;;;;;;;12.20;73.53;98760.79;106052;1274;97840;-65
2022/09/12 11:31:26;;;;;;;14.90;5.60;;;;;;;12.16;73.49;98762.89;106077;1274;111947;-65
2022/09/12 11:34:01;;;;;;;11.80;5.40;;;;;;;12.10;73.56;98766.97;106115;1274;97852;-64
2022/09/12 11:36:38;;;;;;;11.20;5.30;;;;;;;12.07;73.46;98768.45;106052;1274;107733;-64
2022/09/12 11:39:16;;;;;;;13.30;5.70;;;;;;;12.02;73.44;98772.00;106083;1274;97960;-66
2022/09/12 11:42:04;;;;;;;13.80;6.20;;;;;;;12.00;73.72;98773.64;106060;1274;97928;-65
2022/09/12 11:44:55;;;;;;;9.60;4.70;;;;;;;12.00;73.52;98777.00;106106;1273;111346;-64
2022/09/12 11:47:29;;;;;;;12.40;5.40;;;;;;;11.98;73.53;98777.10;106197;1274;97962;-64
2022/09/12 11:50:04;;;;;;;16.30;5.50;;;;;;;11.97;73.72;98780.06;106259;1274;107784;-63
2022/09/12 11:52:39;;;;;;;8.20;4.50;;;;;;;11.98;73.80;98778.25;106146;1274;97473;-64
2022/09/12 11:55:18;;;;;;;9.70;4.70;;;;;;;11.98;73.77;98777.66;106227;1274;97976;-63
2022/09/12 11:57:57;;;;;;;9.80;4.60;;;;;;;11.98;73.69;98780.55;106112;1274;111750;-62